YBCS

Cairns Airport

Airport
ICAO code
YBCS
IATA Code
CNS
Summary
ICAO Region
APAC
ICAO Territory
Location

Cairns, Queensland

Serving
Cairns
Elevation
10 ft
Coordinates
16° 52' 36" S , 145° 45' 15" E
KCC
Metar
Observation
YBCS 091900Z AUTO 26001KT 9999 // SCT024 SCT033 OVC042 28/23 Q1007
Station
Cairns Airport
Date/Time
2022-12-09 19:00:00
Wind direction
260°
Wind speed
01 kts
Lowest cloud amount
scattered clouds
Temperature
28°C
Dew point
23°C
Humidity
74%
QNH
1007 hPa
Weather condition
n/a

Description

Cairns Airport is an international airport in Cairns, Queensland, Australia.

Climatology

Humid “subtropical” climate (Köppen climate classification Cfa) - characterized by hot, humid summers and cool winters. Significant amounts of precipitation occur in all seasons in most areas. Most summer rainfall occurs during thunderstorms and occasional tropical storms.

Airport map

Aerial View

SKYbrary Partners:

Safety knowledge contributed by: